עמוד ראשי
METAR-TAF:

METAR-TAF

שדות תעופה :

סן חוסה, קוסטה ריקה

קו רוחב: 09-57N, קו אורך: 084-09W, גובה: 994מטר

תצפית מזג אוויר נוכחית

הדו"ח נערך לפני 46דקות, בשעה 16:00 UTC
רוח 13קשר מכיוון מזרח
טמפרטורת 25 צלסיוס
לחות 57%
לחץ 1019 hPa
ראות 10 קילומטר או יותר
מעט עננים בגובה 4500רגל
עננים בינוניים בגובה 18000רגל

METAR: MRPV 241600Z 08013KT 9999 FEW045 BKN180 25/16 A3010 NOSIG

זמן: 10:46 (16:46 UTC)

תחזית

הדו"ח נערך לפני 5 שעות ו 46דקות, בשעה 11:00 UTC
תחזית בתוקף מ 24 ב 12 UTC עד 25 ב 12 UTC
רוח 17קשר מכיוון מזרח
ראות 10 קילומטר או יותר
מעט עננים בגובה 3500רגל
עננים פזורים בגובה 10000רגל
זמנית מ -
24 ב 12 UTC עד 24 ב 17 UTC
רוח 15קשר מכיוון מזרח/דרום-מזרח עם משבים עד 25קשר
זמנית מ -
24 ב 20 UTC עד 24 ב 24 UTC
רוח 7קשר מכיוון מערב
מעט עננים בגובה 2000רגל , קומולוס מיגדלי.
גשם,

TAF: MRPV 241100Z 2412/2512 10017KT 9999 FEW035 SCT100 TX30/2418Z TN19/2511Z TEMPO 2412/2417 12015G25KT TEMPO 2420/2424 28007KT RA FEW020TCU

תצפיות ותחזיות מזג אוויר לגבי יותר מ- 4,000 שדות תעופה ברחבי העולם. דוחות METAR ו- TAF.

התחנות הזמינות מסומנות בנקודות צהובות ואדומות על גבי המפה.

העבר את העכבר לנקודה הצבעונית על מנת לראות את שם התחנה.

לאחר מכן, לחץ כדי לראות את תוכן ואת תחזיות מזג האוויר.

כדי לשנות את המפה: לחץ על הכפתורים הירוקים עם הפלוס השחור כדי להתקרב; על הכפתור הירוק עם המקף כדי להתרחק; או בחיצים הירוקים למפות סמוכות.


METAR-TAF: